sensor_id;sensor_type;location;lat;lon;timestamp;pressure;altitude;pressure_sealevel;temperature;humidity
68941;BME280;55982;51.476;7.552;2023-02-03T00:00:27;100564.31;;;7.98;100.00
68941;BME280;55982;51.476;7.552;2023-02-03T00:02:54;100556.50;;;8.01;100.00
68941;BME280;55982;51.476;7.552;2023-02-03T00:05:20;100546.06;;;8.01;100.00
68941;BME280;55982;51.476;7.552;2023-02-03T00:07:47;100536.44;;;8.06;100.00
68941;BME280;55982;51.476;7.552;2023-02-03T00:10:12;100543.41;;;8.04;100.00
68941;BME280;55982;51.476;7.552;2023-02-03T00:12:38;100531.31;;;8.00;100.00
68941;BME280;55982;51.476;7.552;2023-02-03T00:15:04;100532.94;;;8.07;100.00
68941;BME280;55982;51.476;7.552;2023-02-03T00:17:29;100536.47;;;8.04;100.00
68941;BME280;55982;51.476;7.552;2023-02-03T00:19:55;100527.78;;;8.04;100.00
68941;BME280;55982;51.476;7.552;2023-02-03T00:22:20;100532.16;;;8.02;100.00
68941;BME280;55982;51.476;7.552;2023-02-03T00:24:45;100527.75;;;8.07;100.00
68941;BME280;55982;51.476;7.552;2023-02-03T00:27:11;100523.38;;;8.09;100.00
68941;BME280;55982;51.476;7.552;2023-02-03T00:29:36;100531.22;;;8.07;100.00
68941;BME280;55982;51.476;7.552;2023-02-03T00:32:01;100524.25;;;8.08;100.00
68941;BME280;55982;51.476;7.552;2023-02-03T00:34:28;100525.09;;;8.11;100.00
68941;BME280;55982;51.476;7.552;2023-02-03T00:36:54;100525.13;;;8.08;100.00
68941;BME280;55982;51.476;7.552;2023-02-03T00:39:20;100513.88;;;8.05;100.00
68941;BME280;55982;51.476;7.552;2023-02-03T00:41:45;100513.81;;;8.09;100.00
68941;BME280;55982;51.476;7.552;2023-02-03T00:44:10;100515.53;;;8.12;100.00
68941;BME280;55982;51.476;7.552;2023-02-03T00:46:36;100517.25;;;8.13;100.00
68941;BME280;55982;51.476;7.552;2023-02-03T00:49:03;100528.50;;;8.18;100.00
68941;BME280;55982;51.476;7.552;2023-02-03T00:51:28;100517.19;;;8.19;100.00
68941;BME280;55982;51.476;7.552;2023-02-03T00:53:54;100532.03;;;8.14;100.00
68941;BME280;55982;51.476;7.552;2023-02-03T00:56:20;100538.09;;;8.13;100.00
68941;BME280;55982;51.476;7.552;2023-02-03T00:58:46;100536.31;;;8.16;100.00
68941;BME280;55982;51.476;7.552;2023-02-03T01:01:11;100529.34;;;8.20;100.00
68941;BME280;55982;51.476;7.552;2023-02-03T01:03:37;100541.56;;;8.13;100.00
68941;BME280;55982;51.476;7.552;2023-02-03T01:06:13;100553.78;;;8.10;100.00
68941;BME280;55982;51.476;7.552;2023-02-03T01:08:39;100564.19;;;8.10;100.00
68941;BME280;55982;51.476;7.552;2023-02-03T01:11:06;100560.63;;;8.17;100.00
68941;BME280;55982;51.476;7.552;2023-02-03T01:13:32;100569.41;;;8.10;100.00
68941;BME280;55982;51.476;7.552;2023-02-03T01:15:57;100563.22;;;8.20;100.00
68941;BME280;55982;51.476;7.552;2023-02-03T01:18:22;100565.84;;;8.20;100.00
68941;BME280;55982;51.476;7.552;2023-02-03T01:20:48;100577.97;;;8.21;100.00
68941;BME280;55982;51.476;7.552;2023-02-03T01:23:13;100582.31;;;8.20;100.00
68941;BME280;55982;51.476;7.552;2023-02-03T01:25:39;100574.50;;;8.19;100.00
68941;BME280;55982;51.476;7.552;2023-02-03T01:28:04;100565.75;;;8.26;100.00
68941;BME280;55982;51.476;7.552;2023-02-03T01:30:30;100560.56;;;8.26;100.00
68941;BME280;55982;51.476;7.552;2023-02-03T01:32:55;100562.28;;;8.27;100.00
68941;BME280;55982;51.476;7.552;2023-02-03T01:35:21;100555.41;;;8.20;100.00
68941;BME280;55982;51.476;7.552;2023-02-03T01:37:46;100560.63;;;8.20;100.00
68941;BME280;55982;51.476;7.552;2023-02-03T01:40:11;100570.13;;;8.22;100.00
68941;BME280;55982;51.476;7.552;2023-02-03T01:42:37;100561.47;;;8.22;100.00
68941;BME280;55982;51.476;7.552;2023-02-03T01:45:03;100571.88;;;8.20;100.00
68941;BME280;55982;51.476;7.552;2023-02-03T01:47:45;100569.28;;;8.22;100.00
68941;BME280;55982;51.476;7.552;2023-02-03T01:50:29;100572.75;;;8.24;100.00
68941;BME280;55982;51.476;7.552;2023-02-03T01:53:02;100575.34;;;8.24;100.00
68941;BME280;55982;51.476;7.552;2023-02-03T01:55:36;100567.53;;;8.21;100.00
68941;BME280;55982;51.476;7.552;2023-02-03T02:00:28;100555.34;;;8.23;100.00
68941;BME280;55982;51.476;7.552;2023-02-03T02:02:54;100556.22;;;8.25;100.00
68941;BME280;55982;51.476;7.552;2023-02-03T02:05:35;100550.97;;;8.28;100.00
68941;BME280;55982;51.476;7.552;2023-02-03T02:08:03;100548.44;;;8.22;100.00
68941;BME280;55982;51.476;7.552;2023-02-03T02:10:30;100546.69;;;8.21;100.00
68941;BME280;55982;51.476;7.552;2023-02-03T02:12:56;100558.84;;;8.22;100.00
68941;BME280;55982;51.476;7.552;2023-02-03T02:15:30;100557.16;;;8.18;100.00
68941;BME280;55982;51.476;7.552;2023-02-03T02:18:23;100541.53;;;8.18;100.00
68941;BME280;55982;51.476;7.552;2023-02-03T02:23:27;100550.22;;;8.17;100.00
68941;BME280;55982;51.476;7.552;2023-02-03T02:26:24;100532.00;;;8.15;100.00
68941;BME280;55982;51.476;7.552;2023-02-03T02:29:11;100532.78;;;8.22;100.00
68941;BME280;55982;51.476;7.552;2023-02-03T02:32:05;100505.88;;;8.18;100.00
68941;BME280;55982;51.476;7.552;2023-02-03T02:37:28;100498.88;;;8.26;100.00
68941;BME280;55982;51.476;7.552;2023-02-03T02:42:50;100488.47;;;8.20;100.00
68941;BME280;55982;51.476;7.552;2023-02-03T02:45:28;100484.19;;;8.18;100.00
68941;BME280;55982;51.476;7.552;2023-02-03T02:48:11;100499.75;;;8.24;100.00
68941;BME280;55982;51.476;7.552;2023-02-03T02:50:40;100502.41;;;8.19;100.00
68941;BME280;55982;51.476;7.552;2023-02-03T02:53:09;100494.63;;;8.15;100.00
68941;BME280;55982;51.476;7.552;2023-02-03T02:55:37;100476.31;;;8.21;100.00
68941;BME280;55982;51.476;7.552;2023-02-03T02:58:07;100482.44;;;8.17;100.00
68941;BME280;55982;51.476;7.552;2023-02-03T03:00:35;100480.69;;;8.19;100.00
68941;BME280;55982;51.476;7.552;2023-02-03T03:03:16;100475.47;;;8.19;100.00
68941;BME280;55982;51.476;7.552;2023-02-03T03:05:45;100466.88;;;8.14;100.00
68941;BME280;55982;51.476;7.552;2023-02-03T03:08:12;100491.09;;;8.20;100.00
68941;BME280;55982;51.476;7.552;2023-02-03T03:10:40;100531.03;;;8.24;100.00
68941;BME280;55982;51.476;7.552;2023-02-03T03:13:12;100555.34;;;8.24;100.00
68941;BME280;55982;51.476;7.552;2023-02-03T03:15:39;100548.44;;;8.22;100.00
68941;BME280;55982;51.476;7.552;2023-02-03T03:18:13;100521.47;;;8.24;100.00
68941;BME280;55982;51.476;7.552;2023-02-03T03:20:41;100520.59;;;8.24;100.00
68941;BME280;55982;51.476;7.552;2023-02-03T03:23:21;100512.75;;;8.28;100.00
68941;BME280;55982;51.476;7.552;2023-02-03T03:25:53;100518.94;;;8.17;100.00
68941;BME280;55982;51.476;7.552;2023-02-03T03:28:34;100508.44;;;8.23;100.00
68941;BME280;55982;51.476;7.552;2023-02-03T03:31:02;100503.28;;;8.18;100.00
68941;BME280;55982;51.476;7.552;2023-02-03T03:33:28;100497.19;;;8.19;100.00
68941;BME280;55982;51.476;7.552;2023-02-03T03:38:37;100505.03;;;8.18;100.00
68941;BME280;55982;51.476;7.552;2023-02-03T03:41:07;100499.81;;;8.18;100.00
68941;BME280;55982;51.476;7.552;2023-02-03T03:43:38;100509.34;;;8.20;100.00
68941;BME280;55982;51.476;7.552;2023-02-03T03:48:48;100496.31;;;8.19;100.00
68941;BME280;55982;51.476;7.552;2023-02-03T03:51:27;100502.34;;;8.22;100.00
68941;BME280;55982;51.476;7.552;2023-02-03T03:53:56;100495.47;;;8.20;100.00
68941;BME280;55982;51.476;7.552;2023-02-03T03:56:32;100489.34;;;8.24;100.00
68941;BME280;55982;51.476;7.552;2023-02-03T03:59:01;100493.66;;;8.23;100.00
68941;BME280;55982;51.476;7.552;2023-02-03T04:01:29;100502.31;;;8.28;100.00
68941;BME280;55982;51.476;7.552;2023-02-03T04:03:59;100516.25;;;8.24;100.00
68941;BME280;55982;51.476;7.552;2023-02-03T04:06:27;100506.69;;;8.26;100.00
68941;BME280;55982;51.476;7.552;2023-02-03T04:08:52;100504.94;;;8.27;100.00
68941;BME280;55982;51.476;7.552;2023-02-03T04:11:18;100496.22;;;8.28;100.00
68941;BME280;55982;51.476;7.552;2023-02-03T04:14:02;100497.97;;;8.29;100.00
68941;BME280;55982;51.476;7.552;2023-02-03T04:16:28;100497.97;;;8.29;100.00
68941;BME280;55982;51.476;7.552;2023-02-03T04:18:53;100489.31;;;8.27;100.00
68941;BME280;55982;51.476;7.552;2023-02-03T04:21:19;100475.31;;;8.34;100.00
68941;BME280;55982;51.476;7.552;2023-02-03T04:23:44;100490.13;;;8.30;100.00
68941;BME280;55982;51.476;7.552;2023-02-03T04:26:09;100497.91;;;8.35;100.00
68941;BME280;55982;51.476;7.552;2023-02-03T04:28:35;100488.22;;;8.43;100.00
68941;BME280;55982;51.476;7.552;2023-02-03T04:31:00;100492.59;;;8.41;100.00
68941;BME280;55982;51.476;7.552;2023-02-03T04:33:25;100488.31;;;8.37;100.00
68941;BME280;55982;51.476;7.552;2023-02-03T04:35:51;100472.69;;;8.36;100.00
68941;BME280;55982;51.476;7.552;2023-02-03T04:38:16;100497.84;;;8.38;100.00
68941;BME280;55982;51.476;7.552;2023-02-03T04:40:42;100488.31;;;8.37;100.00
68941;BME280;55982;51.476;7.552;2023-02-03T04:43:09;100496.97;;;8.39;100.00
68941;BME280;55982;51.476;7.552;2023-02-03T04:45:35;100503.88;;;8.43;100.00
68941;BME280;55982;51.476;7.552;2023-02-03T04:48:01;100478.72;;;8.39;100.00
68941;BME280;55982;51.476;7.552;2023-02-03T04:50:29;100476.97;;;8.38;100.00
68941;BME280;55982;51.476;7.552;2023-02-03T04:52:54;100448.38;;;8.35;100.00
68941;BME280;55982;51.476;7.552;2023-02-03T04:55:19;100447.53;;;8.33;100.00
68941;BME280;55982;51.476;7.552;2023-02-03T04:57:45;100444.16;;;8.25;100.00
68941;BME280;55982;51.476;7.552;2023-02-03T05:00:11;100443.97;;;8.39;100.00
68941;BME280;55982;51.476;7.552;2023-02-03T05:02:36;100444.00;;;8.37;100.00
68941;BME280;55982;51.476;7.552;2023-02-03T05:05:02;100447.47;;;8.36;100.00
68941;BME280;55982;51.476;7.552;2023-02-03T05:07:27;100447.53;;;8.33;100.00
68941;BME280;55982;51.476;7.552;2023-02-03T05:09:52;100469.97;;;8.43;100.00
68941;BME280;55982;51.476;7.552;2023-02-03T05:12:18;100461.31;;;8.41;100.00
68941;BME280;55982;51.476;7.552;2023-02-03T05:14:43;100457.03;;;8.37;100.00
68941;BME280;55982;51.476;7.552;2023-02-03T05:17:08;100459.63;;;8.37;100.00
68941;BME280;55982;51.476;7.552;2023-02-03T05:19:33;100443.94;;;8.40;100.00
68941;BME280;55982;51.476;7.552;2023-02-03T05:21:59;100431.81;;;8.39;100.00
68941;BME280;55982;51.476;7.552;2023-02-03T05:24:24;100437.81;;;8.43;100.00
68941;BME280;55982;51.476;7.552;2023-02-03T05:26:49;100413.47;;;8.44;100.00
68941;BME280;55982;51.476;7.552;2023-02-03T05:29:15;100445.66;;;8.43;100.00
68941;BME280;55982;51.476;7.552;2023-02-03T05:31:40;100449.97;;;8.45;100.00
68941;BME280;55982;51.476;7.552;2023-02-03T05:34:06;100457.88;;;8.39;100.00
68941;BME280;55982;51.476;7.552;2023-02-03T05:36:31;100447.44;;;8.39;100.00
68941;BME280;55982;51.476;7.552;2023-02-03T05:38:57;100451.72;;;8.42;100.00
68941;BME280;55982;51.476;7.552;2023-02-03T05:41:22;100420.44;;;8.43;100.00
68941;BME280;55982;51.476;7.552;2023-02-03T05:44:06;100426.50;;;8.45;100.00
68941;BME280;55982;51.476;7.552;2023-02-03T05:46:32;100439.63;;;8.39;100.00
68941;BME280;55982;51.476;7.552;2023-02-03T05:48:57;100447.44;;;8.39;100.00
68941;BME280;55982;51.476;7.552;2023-02-03T05:51:23;100449.06;;;8.46;100.00
68941;BME280;55982;51.476;7.552;2023-02-03T05:53:49;100443.88;;;8.45;100.00
68941;BME280;55982;51.476;7.552;2023-02-03T05:56:14;100436.88;;;8.48;100.00
68941;BME280;55982;51.476;7.552;2023-02-03T05:58:40;100433.41;;;8.46;100.00
68941;BME280;55982;51.476;7.552;2023-02-03T06:01:05;100435.09;;;8.50;100.00
68941;BME280;55982;51.476;7.552;2023-02-03T06:03:30;100446.50;;;8.45;100.00
68941;BME280;55982;51.476;7.552;2023-02-03T06:05:56;100436.94;;;8.45;100.00
68941;BME280;55982;51.476;7.552;2023-02-03T06:08:23;100438.56;;;8.52;100.00
68941;BME280;55982;51.476;7.552;2023-02-03T06:10:56;100435.97;;;8.51;100.00
68941;BME280;55982;51.476;7.552;2023-02-03T06:13:21;100452.50;;;8.48;100.00
68941;BME280;55982;51.476;7.552;2023-02-03T06:15:47;100442.03;;;8.51;100.00
68941;BME280;55982;51.476;7.552;2023-02-03T06:18:12;100449.88;;;8.50;100.00
68941;BME280;55982;51.476;7.552;2023-02-03T06:20:39;100458.63;;;8.47;100.00
68941;BME280;55982;51.476;7.552;2023-02-03T06:23:05;100436.94;;;8.45;100.00
68941;BME280;55982;51.476;7.552;2023-02-03T06:25:30;100439.63;;;8.38;100.00
68941;BME280;55982;51.476;7.552;2023-02-03T06:27:57;100441.31;;;8.43;100.00
68941;BME280;55982;51.476;7.552;2023-02-03T06:30:23;100449.13;;;8.43;100.00
68941;BME280;55982;51.476;7.552;2023-02-03T06:32:49;100454.34;;;8.43;100.00
68941;BME280;55982;51.476;7.552;2023-02-03T06:35:15;100450.06;;;8.36;100.00
68941;BME280;55982;51.476;7.552;2023-02-03T06:37:40;100450.97;;;8.35;100.00
68941;BME280;55982;51.476;7.552;2023-02-03T06:40:06;100446.63;;;8.34;100.00
68941;BME280;55982;51.476;7.552;2023-02-03T06:42:32;100443.09;;;8.38;100.00
68941;BME280;55982;51.476;7.552;2023-02-03T06:44:58;100449.16;;;8.40;100.00
68941;BME280;55982;51.476;7.552;2023-02-03T06:47:23;100454.44;;;8.34;100.00
68941;BME280;55982;51.476;7.552;2023-02-03T06:49:49;100452.69;;;8.36;100.00
68941;BME280;55982;51.476;7.552;2023-02-03T06:52:16;100452.69;;;8.36;100.00
68941;BME280;55982;51.476;7.552;2023-02-03T06:54:41;100460.56;;;8.33;100.00
68941;BME280;55982;51.476;7.552;2023-02-03T06:57:07;100438.88;;;8.28;100.00
68941;BME280;55982;51.476;7.552;2023-02-03T06:59:32;100455.53;;;8.18;100.00
68941;BME280;55982;51.476;7.552;2023-02-03T07:01:57;100462.50;;;8.16;100.00
68941;BME280;55982;51.476;7.552;2023-02-03T07:04:23;100468.63;;;8.12;100.00
68941;BME280;55982;51.476;7.552;2023-02-03T07:06:48;100476.53;;;8.06;100.00
68941;BME280;55982;51.476;7.552;2023-02-03T07:09:14;100477.50;;;7.99;100.00
68941;BME280;55982;51.476;7.552;2023-02-03T07:11:39;100480.97;;;7.98;100.00
68941;BME280;55982;51.476;7.552;2023-02-03T07:14:05;100482.78;;;7.90;100.00
68941;BME280;55982;51.476;7.552;2023-02-03T07:16:30;100475.88;;;7.86;100.00
68941;BME280;55982;51.476;7.552;2023-02-03T07:18:58;100482.03;;;7.80;100.00
68941;BME280;55982;51.476;7.552;2023-02-03T07:21:24;100479.44;;;7.79;100.00
68941;BME280;55982;51.476;7.552;2023-02-03T07:23:49;100469.09;;;7.73;100.00
68941;BME280;55982;51.476;7.552;2023-02-03T07:26:15;100472.59;;;7.72;100.00
68941;BME280;55982;51.476;7.552;2023-02-03T07:28:41;100476.94;;;7.71;100.00
68941;BME280;55982;51.476;7.552;2023-02-03T07:31:07;100468.28;;;7.68;100.00
68941;BME280;55982;51.476;7.552;2023-02-03T07:33:34;100477.81;;;7.69;100.00
68941;BME280;55982;51.476;7.552;2023-02-03T07:36:00;100462.25;;;7.66;100.00
68941;BME280;55982;51.476;7.552;2023-02-03T07:38:27;100477.88;;;7.66;100.00
68941;BME280;55982;51.476;7.552;2023-02-03T07:40:54;100463.94;;;7.67;100.00
68941;BME280;55982;51.476;7.552;2023-02-03T07:43:19;100484.78;;;7.70;100.00
68941;BME280;55982;51.476;7.552;2023-02-03T07:45:45;100465.63;;;7.74;100.00
68941;BME280;55982;51.476;7.552;2023-02-03T07:48:10;100474.28;;;7.76;100.00
68941;BME280;55982;51.476;7.552;2023-02-03T07:50:36;100484.63;;;7.82;100.00
68941;BME280;55982;51.476;7.552;2023-02-03T07:53:02;100482.84;;;7.84;100.00
68941;BME280;55982;51.476;7.552;2023-02-03T07:55:28;100479.34;;;7.88;100.00
68941;BME280;55982;51.476;7.552;2023-02-03T07:57:55;100473.16;;;7.96;100.00
68941;BME280;55982;51.476;7.552;2023-02-03T08:00:21;100483.59;;;7.96;100.00
68941;BME280;55982;51.476;7.552;2023-02-03T08:02:46;100484.34;;;8.06;100.00
68941;BME280;55982;51.476;7.552;2023-02-03T08:05:12;100488.69;;;8.05;100.00
68941;BME280;55982;51.476;7.552;2023-02-03T08:07:38;100486.03;;;8.10;100.00
68941;BME280;55982;51.476;7.552;2023-02-03T08:10:05;100475.59;;;8.10;100.00
68941;BME280;55982;51.476;7.552;2023-02-03T08:12:30;100484.22;;;8.15;100.00
68941;BME280;55982;51.476;7.552;2023-02-03T08:14:55;100475.53;;;8.16;100.00
68941;BME280;55982;51.476;7.552;2023-02-03T08:17:21;100482.50;;;8.14;100.00
68941;BME280;55982;51.476;7.552;2023-02-03T08:19:47;100482.38;;;8.23;100.00
68941;BME280;55982;51.476;7.552;2023-02-03T08:22:12;100480.66;;;8.20;100.00
68941;BME280;55982;51.476;7.552;2023-02-03T08:24:44;100468.47;;;8.27;100.00
68941;BME280;55982;51.476;7.552;2023-02-03T08:27:15;100470.09;;;8.34;100.00
68941;BME280;55982;51.476;7.552;2023-02-03T08:29:41;100482.28;;;8.32;100.00
68941;BME280;55982;51.476;7.552;2023-02-03T08:32:11;100488.34;;;8.34;100.00
68941;BME280;55982;51.476;7.552;2023-02-03T08:34:38;100463.09;;;8.36;100.00
68941;BME280;55982;51.476;7.552;2023-02-03T08:37:05;100480.50;;;8.37;100.00
68941;BME280;55982;51.476;7.552;2023-02-03T08:39:31;100461.31;;;8.41;100.00
68941;BME280;55982;51.476;7.552;2023-02-03T08:41:59;100470.00;;;8.40;100.00
68941;BME280;55982;51.476;7.552;2023-02-03T08:44:24;100456.03;;;8.44;100.00
68941;BME280;55982;51.476;7.552;2023-02-03T08:46:51;100461.19;;;8.50;100.00
68941;BME280;55982;51.476;7.552;2023-02-03T08:49:17;100451.63;;;8.49;100.00
68941;BME280;55982;51.476;7.552;2023-02-03T08:51:44;100473.44;;;8.45;100.00
68941;BME280;55982;51.476;7.552;2023-02-03T08:54:10;100489.03;;;8.47;100.00
68941;BME280;55982;51.476;7.552;2023-02-03T08:56:36;100489.16;;;8.39;100.00
68941;BME280;55982;51.476;7.552;2023-02-03T08:59:01;100485.56;;;8.46;100.00
68941;BME280;55982;51.476;7.552;2023-02-03T09:01:27;100488.22;;;8.42;100.00
68941;BME280;55982;51.476;7.552;2023-02-03T09:03:53;100488.34;;;8.34;100.00
68941;BME280;55982;51.476;7.552;2023-02-03T09:06:19;100496.94;;;8.41;100.00
68941;BME280;55982;51.476;7.552;2023-02-03T09:08:45;100485.66;;;8.40;100.00
68941;BME280;55982;51.476;7.552;2023-02-03T09:11:15;100489.06;;;8.45;100.00
68941;BME280;55982;51.476;7.552;2023-02-03T09:13:42;100473.44;;;8.45;100.00
68941;BME280;55982;51.476;7.552;2023-02-03T09:16:11;100478.53;;;8.51;100.00
68941;BME280;55982;51.476;7.552;2023-02-03T09:18:37;100487.25;;;8.50;100.00
68941;BME280;55982;51.476;7.552;2023-02-03T09:21:04;100490.66;;;8.55;100.00
68941;BME280;55982;51.476;7.552;2023-02-03T09:23:30;100501.16;;;8.49;100.00
68941;BME280;55982;51.476;7.552;2023-02-03T09:25:55;100488.97;;;8.51;100.00
68941;BME280;55982;51.476;7.552;2023-02-03T09:28:25;100502.84;;;8.53;100.00
68941;BME280;55982;51.476;7.552;2023-02-03T09:30:50;100505.41;;;8.58;100.00
68941;BME280;55982;51.476;7.552;2023-02-03T09:33:16;100501.06;;;8.55;100.00
68941;BME280;55982;51.476;7.552;2023-02-03T09:35:41;100485.44;;;8.55;100.00
68941;BME280;55982;51.476;7.552;2023-02-03T09:38:07;100499.41;;;8.53;100.00
68941;BME280;55982;51.476;7.552;2023-02-03T09:40:34;100492.38;;;8.56;100.00
68941;BME280;55982;51.476;7.552;2023-02-03T09:43:08;100485.50;;;8.52;100.00
68941;BME280;55982;51.476;7.552;2023-02-03T09:45:37;100488.84;;;8.60;100.00
68941;BME280;55982;51.476;7.552;2023-02-03T09:48:08;100487.19;;;8.53;100.00
68941;BME280;55982;51.476;7.552;2023-02-03T09:50:37;100489.72;;;8.59;100.00
68941;BME280;55982;51.476;7.552;2023-02-03T09:53:11;100491.38;;;8.65;100.00
68941;BME280;55982;51.476;7.552;2023-02-03T09:55:42;100483.56;;;8.66;100.00
68941;BME280;55982;51.476;7.552;2023-02-03T09:58:11;100488.78;;;8.66;100.00
68941;BME280;55982;51.476;7.552;2023-02-03T10:00:43;100495.75;;;8.64;100.00
68941;BME280;55982;51.476;7.552;2023-02-03T10:06:10;100480.03;;;8.67;100.00
68941;BME280;55982;51.476;7.552;2023-02-03T10:14:03;100501.81;;;8.66;100.00
68941;BME280;55982;51.476;7.552;2023-02-03T10:16:45;100510.44;;;8.70;100.00
68941;BME280;55982;51.476;7.552;2023-02-03T10:19:20;100499.16;;;8.69;100.00
68941;BME280;55982;51.476;7.552;2023-02-03T10:21:50;100497.44;;;8.68;100.00
68941;BME280;55982;51.476;7.552;2023-02-03T10:24:25;100495.59;;;8.73;100.00
68941;BME280;55982;51.476;7.552;2023-02-03T10:26:52;100513.88;;;8.73;100.00
68941;BME280;55982;51.476;7.552;2023-02-03T10:29:34;100507.78;;;8.73;100.00
68941;BME280;55982;51.476;7.552;2023-02-03T10:32:01;100508.53;;;8.81;100.00
68941;BME280;55982;51.476;7.552;2023-02-03T10:34:27;100514.66;;;8.78;100.00
68941;BME280;55982;51.476;7.552;2023-02-03T10:36:55;100510.38;;;8.76;100.00
68941;BME280;55982;51.476;7.552;2023-02-03T10:39:32;100510.28;;;8.80;100.00
68941;BME280;55982;51.476;7.552;2023-02-03T10:42:02;100519.88;;;8.78;100.00
68941;BME280;55982;51.476;7.552;2023-02-03T10:44:52;100519.06;;;8.75;100.00
68941;BME280;55982;51.476;7.552;2023-02-03T10:47:31;100513.84;;;8.75;100.00
68941;BME280;55982;51.476;7.552;2023-02-03T10:50:03;100523.50;;;8.68;100.00
68941;BME280;55982;51.476;7.552;2023-02-03T10:52:35;100519.09;;;8.73;100.00
68941;BME280;55982;51.476;7.552;2023-02-03T10:55:27;100515.53;;;8.79;100.00
68941;BME280;55982;51.476;7.552;2023-02-03T10:57:52;100500.75;;;8.76;100.00
68941;BME280;55982;51.476;7.552;2023-02-03T11:00:28;100478.09;;;8.81;100.00
68941;BME280;55982;51.476;7.552;2023-02-03T11:02:56;100493.75;;;8.81;100.00
68941;BME280;55982;51.476;7.552;2023-02-03T11:05:23;100498.97;;;8.81;100.00
68941;BME280;55982;51.476;7.552;2023-02-03T11:07:52;100495.53;;;8.79;100.00
68941;BME280;55982;51.476;7.552;2023-02-03T11:10:37;100509.50;;;8.75;100.00
68941;BME280;55982;51.476;7.552;2023-02-03T11:13:19;100511.03;;;8.88;100.00
68941;BME280;55982;51.476;7.552;2023-02-03T11:16:06;100513.69;;;8.84;100.00
68941;BME280;55982;51.476;7.552;2023-02-03T11:21:21;100521.38;;;8.94;100.00
68941;BME280;55982;51.476;7.552;2023-02-03T11:26:14;100523.06;;;8.98;100.00
68941;BME280;55982;51.476;7.552;2023-02-03T11:28:45;100524.66;;;9.05;100.00
68941;BME280;55982;51.476;7.552;2023-02-03T11:31:28;100522.88;;;9.10;100.00
68941;BME280;55982;51.476;7.552;2023-02-03T11:34:12;100536.78;;;9.09;100.00
68941;BME280;55982;51.476;7.552;2023-02-03T11:36:39;100531.50;;;9.12;100.00
68941;BME280;55982;51.476;7.552;2023-02-03T11:39:25;100542.69;;;9.22;100.00
68941;BME280;55982;51.476;7.552;2023-02-03T11:41:51;100539.25;;;9.20;100.00
68941;BME280;55982;51.476;7.552;2023-02-03T11:44:24;100534.06;;;9.17;100.00
68941;BME280;55982;51.476;7.552;2023-02-03T11:47:00;100531.41;;;9.18;100.00
68941;BME280;55982;51.476;7.552;2023-02-03T11:57:43;100523.22;;;8.86;100.00
68941;BME280;55982;51.476;7.552;2023-02-03T12:00:38;100523.22;;;8.86;100.00
68941;BME280;55982;51.476;7.552;2023-02-03T12:08:27;100496.97;;;8.95;100.00
68941;BME280;55982;51.476;7.552;2023-02-03T12:24:22;100532.28;;;9.19;100.00
68941;BME280;55982;51.476;7.552;2023-02-03T12:29:44;100534.72;;;9.30;100.00
68941;BME280;55982;51.476;7.552;2023-02-03T12:32:34;100525.94;;;9.34;100.00
68941;BME280;55982;51.476;7.552;2023-02-03T12:38:12;100533.06;;;9.26;100.00
68941;BME280;55982;51.476;7.552;2023-02-03T12:40:41;100510.44;;;9.24;100.00
68941;BME280;55982;51.476;7.552;2023-02-03T12:43:37;100526.00;;;9.31;100.00
68941;BME280;55982;51.476;7.552;2023-02-03T12:48:57;100536.34;;;9.37;100.00
68941;BME280;55982;51.476;7.552;2023-02-03T12:51:36;100527.56;;;9.41;100.00
68941;BME280;55982;51.476;7.552;2023-02-03T12:56:49;100538.13;;;9.35;100.00
68941;BME280;55982;51.476;7.552;2023-02-03T12:59:22;100537.06;;;9.46;100.00
68941;BME280;55982;51.476;7.552;2023-02-03T13:01:53;100533.41;;;9.55;100.00
68941;BME280;55982;51.476;7.552;2023-02-03T13:04:33;100529.16;;;9.51;100.00
68941;BME280;55982;51.476;7.552;2023-02-03T13:07:20;100527.31;;;9.56;100.00
68941;BME280;55982;51.476;7.552;2023-02-03T13:12:36;100516.97;;;9.50;100.00
68941;BME280;55982;51.476;7.552;2023-02-03T13:20:40;100493.53;;;9.45;100.00
68941;BME280;55982;51.476;7.552;2023-02-03T13:23:07;100510.06;;;9.46;100.00
68941;BME280;55982;51.476;7.552;2023-02-03T13:37:01;100530.03;;;8.96;100.00
68941;BME280;55982;51.476;7.552;2023-02-03T13:44:44;100556.69;;;8.57;100.00
68941;BME280;55982;51.476;7.552;2023-02-03T13:47:17;100567.28;;;8.45;100.00
68941;BME280;55982;51.476;7.552;2023-02-03T13:49:47;100558.72;;;8.34;100.00
68941;BME280;55982;51.476;7.552;2023-02-03T13:54:53;100571.00;;;8.23;100.00
68941;BME280;55982;51.476;7.552;2023-02-03T13:57:21;100565.84;;;8.20;100.00
68941;BME280;55982;51.476;7.552;2023-02-03T13:59:47;100564.97;;;8.16;100.00
68941;BME280;55982;51.476;7.552;2023-02-03T14:04:56;100584.94;;;8.19;100.00
68941;BME280;55982;51.476;7.552;2023-02-03T14:10:21;100584.94;;;8.19;100.00
68941;BME280;55982;51.476;7.552;2023-02-03T14:25:26;100609.28;;;8.18;100.00
68941;BME280;55982;51.476;7.552;2023-02-03T14:27:59;100628.38;;;8.20;100.00
68941;BME280;55982;51.476;7.552;2023-02-03T14:30:26;100629.28;;;8.16;100.00
68941;BME280;55982;51.476;7.552;2023-02-03T14:32:57;100631.91;;;8.13;100.00
68941;BME280;55982;51.476;7.552;2023-02-03T14:35:36;100629.31;;;8.13;100.00
68941;BME280;55982;51.476;7.552;2023-02-03T14:38:07;100630.19;;;8.12;100.00
68941;BME280;55982;51.476;7.552;2023-02-03T14:40:40;100624.94;;;8.15;100.00
68941;BME280;55982;51.476;7.552;2023-02-03T14:49:02;100656.19;;;8.18;100.00
68941;BME280;55982;51.476;7.552;2023-02-03T14:52:02;100652.69;;;8.22;100.00
68941;BME280;55982;51.476;7.552;2023-02-03T15:02:23;100669.22;;;8.16;100.00
68941;BME280;55982;51.476;7.552;2023-02-03T15:07:41;100666.56;;;8.24;100.00
68941;BME280;55982;51.476;7.552;2023-02-03T15:13:04;100670.09;;;8.17;100.00